createdAt,value
2022-08-25T00:01:39.386Z,57.19
2022-08-25T00:04:10.814Z,57.44
2022-08-25T00:06:39.928Z,57.71
2022-08-25T00:09:08.293Z,57.62
2022-08-25T00:11:37.284Z,58.02
2022-08-25T00:14:07.592Z,58.80
2022-08-25T00:16:34.847Z,58.88
2022-08-25T00:19:10.598Z,59.21
2022-08-25T00:21:38.043Z,59.48
2022-08-25T00:24:05.068Z,59.30
2022-08-25T00:26:32.382Z,58.84
2022-08-25T00:29:01.817Z,59.87
2022-08-25T00:31:38.598Z,60.20
2022-08-25T00:34:12.759Z,60.13
2022-08-25T00:36:39.543Z,60.51
2022-08-25T00:39:07.771Z,60.32
2022-08-25T00:41:35.357Z,61.07
2022-08-25T00:44:05.545Z,60.97
2022-08-25T00:46:38.833Z,60.98
2022-08-25T00:49:25.326Z,61.49
2022-08-25T00:52:01.736Z,62.77
2022-08-25T00:54:37.915Z,62.41
2022-08-25T00:57:07.388Z,63.42
2022-08-25T00:59:34.338Z,63.33
2022-08-25T01:02:01.835Z,62.71
2022-08-25T01:04:28.717Z,63.10
2022-08-25T01:06:57.927Z,62.33
2022-08-25T01:09:24.933Z,62.55
2022-08-25T01:11:51.630Z,63.45
2022-08-25T01:14:21.572Z,62.80
2022-08-25T01:16:51.222Z,63.08
2022-08-25T01:19:21.927Z,64.43
2022-08-25T01:21:51.469Z,64.99
2022-08-25T01:24:29.600Z,64.75
2022-08-25T01:26:56.163Z,65.93
2022-08-25T01:29:25.222Z,66.67
2022-08-25T01:31:58.744Z,66.76
2022-08-25T01:34:28.080Z,66.74
2022-08-25T01:36:56.111Z,66.22
2022-08-25T01:39:23.263Z,67.94
2022-08-25T01:41:58.335Z,67.47
2022-08-25T01:44:26.223Z,68.65
2022-08-25T01:46:53.333Z,67.64
2022-08-25T01:49:20.580Z,68.44
2022-08-25T01:51:52.800Z,69.67
2022-08-25T01:54:20.135Z,68.71
2022-08-25T01:56:46.701Z,69.07
2022-08-25T01:59:16.938Z,69.78
2022-08-25T02:01:50.885Z,69.41
2022-08-25T02:04:27.058Z,68.68
2022-08-25T02:06:53.618Z,69.38
2022-08-25T02:09:20.183Z,69.15
2022-08-25T02:11:47.817Z,69.00
2022-08-25T02:14:15.644Z,69.07
2022-08-25T02:16:46.363Z,69.42
2022-08-25T02:19:13.254Z,69.05
2022-08-25T02:21:40.026Z,69.32
2022-08-25T02:24:07.406Z,68.92
2022-08-25T02:26:36.501Z,70.13
2022-08-25T02:29:04.419Z,70.05
2022-08-25T02:31:31.636Z,69.55
2022-08-25T02:33:58.230Z,69.62
2022-08-25T02:36:25.694Z,70.59
2022-08-25T02:38:52.759Z,69.04
2022-08-25T02:41:22.987Z,68.67
2022-08-25T02:43:57.844Z,68.03
2022-08-25T02:46:25.042Z,67.43
2022-08-25T02:48:52.881Z,67.08
2022-08-25T02:51:22.199Z,67.65
2022-08-25T02:53:49.758Z,69.10
2022-08-25T02:56:18.841Z,68.78
2022-08-25T02:58:46.292Z,69.72
2022-08-25T03:01:14.424Z,69.33
2022-08-25T03:03:44.281Z,69.62
2022-08-25T03:06:13.235Z,70.48
2022-08-25T03:08:40.429Z,71.11
2022-08-25T03:11:07.355Z,70.73
2022-08-25T03:13:34.392Z,70.90
2022-08-25T03:16:04.853Z,70.72
2022-08-25T03:18:31.855Z,71.36
2022-08-25T03:20:58.678Z,71.20
2022-08-25T03:23:25.734Z,71.84
2022-08-25T03:26:14.941Z,71.27
2022-08-25T03:28:41.671Z,71.17
2022-08-25T03:31:09.292Z,71.68
2022-08-25T03:33:38.322Z,71.18
2022-08-25T03:36:06.343Z,70.89
2022-08-25T03:38:33.416Z,71.21
2022-08-25T03:41:00.220Z,71.66
2022-08-25T03:43:26.772Z,71.06
2022-08-25T03:45:53.641Z,71.69
2022-08-25T03:48:20.458Z,72.04
2022-08-25T03:50:50.502Z,72.39
2022-08-25T03:53:20.512Z,72.16
2022-08-25T03:55:47.960Z,72.06
2022-08-25T03:58:15.410Z,71.89
2022-08-25T04:00:42.202Z,71.86
2022-08-25T04:03:08.940Z,71.97
2022-08-25T04:05:35.562Z,72.01
2022-08-25T04:08:02.481Z,72.34
2022-08-25T04:10:29.746Z,72.55
2022-08-25T04:12:57.082Z,72.05
2022-08-25T04:15:30.084Z,71.84
2022-08-25T04:17:59.030Z,71.39
2022-08-25T04:20:26.032Z,70.86
2022-08-25T04:22:52.945Z,71.16
2022-08-25T04:25:19.965Z,71.24
2022-08-25T04:27:46.524Z,71.31
2022-08-25T04:30:13.859Z,71.68
2022-08-25T04:32:40.595Z,72.22
2022-08-25T04:35:07.543Z,71.52
2022-08-25T04:37:34.600Z,71.59
2022-08-25T04:40:01.647Z,72.11
2022-08-25T04:42:28.694Z,73.01
2022-08-25T04:44:55.745Z,73.09
2022-08-25T04:47:23.060Z,73.42
2022-08-25T04:49:49.659Z,73.73
2022-08-25T04:52:16.300Z,73.47
2022-08-25T04:54:43.844Z,73.32
2022-08-25T04:57:11.156Z,73.51
2022-08-25T04:59:38.194Z,74.18
2022-08-25T05:02:06.572Z,74.66
2022-08-25T05:04:35.350Z,74.73
2022-08-25T05:07:03.531Z,74.74
2022-08-25T05:09:32.635Z,74.54
2022-08-25T05:12:01.000Z,71.29
2022-08-25T05:14:28.684Z,68.86
2022-08-25T05:16:56.111Z,65.64
2022-08-25T05:19:24.104Z,64.35
2022-08-25T05:21:51.097Z,62.19
2022-08-25T05:24:18.587Z,59.76
2022-08-25T05:26:45.200Z,57.82
2022-08-25T05:29:12.106Z,56.43
2022-08-25T05:31:42.542Z,54.44
2022-08-25T05:34:12.195Z,53.07
2022-08-25T05:36:43.528Z,51.41
2022-08-25T05:39:10.994Z,51.53
2022-08-25T05:41:38.683Z,49.28
2022-08-25T05:44:05.408Z,47.94
2022-08-25T05:46:32.370Z,46.48
2022-08-25T05:48:59.192Z,46.60
2022-08-25T05:51:26.672Z,46.32
2022-08-25T05:53:53.670Z,46.07
2022-08-25T05:56:20.883Z,45.38
2022-08-25T05:58:48.046Z,45.66
2022-08-25T06:02:03.990Z,44.92
2022-08-25T06:04:30.671Z,44.89
2022-08-25T06:06:57.284Z,43.79
2022-08-25T06:09:24.256Z,43.19
2022-08-25T06:11:54.728Z,42.03
2022-08-25T06:14:23.297Z,41.34
2022-08-25T06:16:51.599Z,40.92
2022-08-25T06:19:18.548Z,40.90
2022-08-25T06:21:45.123Z,40.99
2022-08-25T06:24:15.378Z,40.11
2022-08-25T06:26:43.972Z,40.07
2022-08-25T06:29:10.554Z,40.08
2022-08-25T06:31:37.130Z,39.27
2022-08-25T06:34:04.104Z,39.11
2022-08-25T06:36:30.631Z,38.45
2022-08-25T06:38:57.299Z,37.60
2022-08-25T06:41:25.631Z,36.93
2022-08-25T06:44:05.210Z,36.89
2022-08-25T06:46:36.258Z,35.69
2022-08-25T06:49:04.881Z,35.96
2022-08-25T06:51:31.627Z,36.43
2022-08-25T06:53:58.190Z,36.99
2022-08-25T06:56:24.824Z,37.18
2022-08-25T06:58:53.593Z,36.45
2022-08-25T07:01:25.772Z,37.42
2022-08-25T07:03:57.676Z,38.10
2022-08-25T07:06:27.035Z,37.78
2022-08-25T07:08:54.203Z,37.26
2022-08-25T07:11:21.381Z,38.95
2022-08-25T07:13:49.138Z,39.14
2022-08-25T07:16:18.348Z,38.05
2022-08-25T07:18:46.546Z,38.33
2022-08-25T07:21:13.913Z,38.45
2022-08-25T07:23:42.205Z,38.93
2022-08-25T07:26:36.315Z,39.67
2022-08-25T07:29:01.965Z,38.36
2022-08-25T07:31:30.051Z,38.04
2022-08-25T07:34:16.622Z,37.91
2022-08-25T07:36:43.987Z,37.87
2022-08-25T07:39:11.103Z,37.94
2022-08-25T07:41:40.572Z,37.93
2022-08-25T07:44:08.315Z,37.63
2022-08-25T07:46:35.159Z,37.29
2022-08-25T07:49:01.974Z,35.70
2022-08-25T07:51:29.007Z,35.94
2022-08-25T07:53:55.752Z,36.75
2022-08-25T07:56:22.730Z,36.05
2022-08-25T07:58:49.916Z,36.47
2022-08-25T08:01:18.906Z,37.36
2022-08-25T08:03:50.474Z,36.75
2022-08-25T08:06:21.452Z,36.55
2022-08-25T08:08:49.687Z,36.77
2022-08-25T08:11:23.273Z,36.95
2022-08-25T08:13:51.656Z,37.14
2022-08-25T08:16:19.767Z,36.48
2022-08-25T08:18:47.052Z,36.53
2022-08-25T08:21:26.331Z,37.07
2022-08-25T08:23:59.078Z,36.84
2022-08-25T08:26:48.140Z,37.95
2022-08-25T08:29:16.337Z,38.98
2022-08-25T08:31:48.370Z,38.56
2022-08-25T08:34:16.443Z,38.06
2022-08-25T08:36:43.135Z,38.16
2022-08-25T08:39:12.502Z,38.47
2022-08-25T08:42:13.164Z,38.91
2022-08-25T08:45:01.979Z,38.96
2022-08-25T08:48:02.854Z,39.02
2022-08-25T08:50:51.659Z,41.20
2022-08-25T08:53:27.816Z,40.29
2022-08-25T08:56:14.144Z,41.34
2022-08-25T08:58:55.580Z,41.60
2022-08-25T09:01:33.398Z,42.41
2022-08-25T09:04:09.422Z,43.12
2022-08-25T09:06:48.516Z,45.37
2022-08-25T09:09:27.763Z,46.02
2022-08-25T09:12:12.390Z,45.68
2022-08-25T09:15:02.913Z,44.50
2022-08-25T09:18:00.695Z,44.75
2022-08-25T09:20:53.366Z,45.45
2022-08-25T09:23:27.328Z,45.79
2022-08-25T09:26:03.434Z,45.73
2022-08-25T09:28:37.153Z,45.40
2022-08-25T09:31:29.609Z,45.77
2022-08-25T09:33:59.792Z,47.62
2022-08-25T09:36:26.992Z,48.13
2022-08-25T09:38:55.247Z,48.41
2022-08-25T09:41:51.996Z,48.18
2022-08-25T09:44:33.126Z,48.35
2022-08-25T09:47:17.881Z,48.13
2022-08-25T09:49:45.958Z,48.45
2022-08-25T09:52:29.029Z,47.54
2022-08-25T09:54:58.024Z,46.82
2022-08-25T09:57:29.091Z,47.19
2022-08-25T09:59:57.853Z,47.56
2022-08-25T10:02:28.520Z,49.02
2022-08-25T10:04:56.169Z,48.16
2022-08-25T10:07:27.990Z,47.17
2022-08-25T10:09:59.536Z,47.56
2022-08-25T10:12:33.363Z,47.88
2022-08-25T10:15:00.126Z,48.90
2022-08-25T10:17:30.566Z,49.20
2022-08-25T10:20:22.902Z,48.77
2022-08-25T10:22:50.380Z,48.79
2022-08-25T10:25:28.030Z,49.08
2022-08-25T10:28:25.376Z,48.31
2022-08-25T10:31:20.309Z,47.53
2022-08-25T10:34:16.610Z,48.31
2022-08-25T10:37:32.609Z,48.57
2022-08-25T10:40:08.542Z,49.93
2022-08-25T10:43:24.085Z,49.95
2022-08-25T10:46:08.940Z,48.62
2022-08-25T10:48:56.416Z,48.98
2022-08-25T10:51:41.839Z,50.23
2022-08-25T10:54:53.328Z,50.24
2022-08-25T10:57:46.681Z,49.14
2022-08-25T11:00:18.150Z,49.20
2022-08-25T11:03:03.415Z,48.59
2022-08-25T11:05:47.752Z,48.77
2022-08-25T11:08:36.354Z,49.08
2022-08-25T11:11:13.183Z,49.07
2022-08-25T11:14:20.986Z,50.10
2022-08-25T11:17:06.176Z,49.99
2022-08-25T11:19:57.204Z,50.31
2022-08-25T11:22:36.081Z,49.87
2022-08-25T11:25:21.764Z,48.55
2022-08-25T11:28:01.967Z,48.44
2022-08-25T11:30:28.963Z,48.43
2022-08-25T11:32:56.748Z,48.60
2022-08-25T11:35:51.051Z,48.15
2022-08-25T11:38:51.774Z,47.93
2022-08-25T11:41:36.116Z,49.23
2022-08-25T11:44:26.810Z,49.04
2022-08-25T11:46:59.360Z,49.21
2022-08-25T11:49:46.161Z,47.91
2022-08-25T11:52:49.069Z,48.14
2022-08-25T11:55:25.673Z,47.83
2022-08-25T11:58:13.153Z,47.34
2022-08-25T12:00:43.480Z,48.55
2022-08-25T12:03:31.531Z,48.96
2022-08-25T12:06:28.258Z,48.70
2022-08-25T12:09:01.412Z,48.61
2022-08-25T12:11:46.892Z,48.82
2022-08-25T12:14:27.965Z,49.13
2022-08-25T12:16:55.010Z,50.00
2022-08-25T12:19:37.973Z,48.76
2022-08-25T12:22:04.806Z,48.69
2022-08-25T12:24:57.303Z,47.68
2022-08-25T12:27:33.610Z,47.64
2022-08-25T12:30:21.883Z,48.33
2022-08-25T12:33:12.987Z,48.43
2022-08-25T12:36:03.581Z,48.47
2022-08-25T12:38:43.560Z,47.02
2022-08-25T12:41:30.900Z,46.32
2022-08-25T12:44:35.538Z,46.43
2022-08-25T12:47:23.465Z,46.31
2022-08-25T12:49:50.824Z,45.83
2022-08-25T12:52:20.887Z,46.42
2022-08-25T12:55:14.059Z,47.19
2022-08-25T12:57:45.086Z,47.63
2022-08-25T13:00:23.635Z,47.54
2022-08-25T13:03:30.319Z,47.60
2022-08-25T13:06:21.935Z,47.08
2022-08-25T13:09:03.775Z,47.72
2022-08-25T13:11:43.146Z,47.86
2022-08-25T13:14:17.792Z,48.11
2022-08-25T13:16:56.068Z,47.66
2022-08-25T13:19:24.263Z,48.39
2022-08-25T13:21:51.590Z,47.50
2022-08-25T13:24:30.490Z,47.01
2022-08-25T13:27:18.045Z,47.62
2022-08-25T13:29:54.564Z,48.14
2022-08-25T13:32:32.475Z,49.18
2022-08-25T13:35:21.325Z,48.96
2022-08-25T13:37:49.575Z,49.84
2022-08-25T13:40:26.911Z,49.58
2022-08-25T13:42:59.098Z,49.46
2022-08-25T13:45:31.846Z,49.65
2022-08-25T13:47:59.208Z,49.50
2022-08-25T13:50:26.315Z,49.45
2022-08-25T13:52:57.115Z,49.12
2022-08-25T13:55:38.155Z,49.10
2022-08-25T13:58:38.690Z,49.89
2022-08-25T14:01:47.201Z,49.49
2022-08-25T14:04:24.545Z,50.27
2022-08-25T14:07:20.810Z,49.54
2022-08-25T14:09:56.859Z,49.82
2022-08-25T14:12:39.891Z,49.60
2022-08-25T14:15:20.271Z,48.59
2022-08-25T14:18:00.501Z,48.04
2022-08-25T14:20:31.392Z,47.25
2022-08-25T14:23:02.628Z,47.47
2022-08-25T14:25:30.494Z,47.05
2022-08-25T14:28:07.449Z,46.46
2022-08-25T14:30:36.663Z,46.34
2022-08-25T14:33:03.983Z,46.43
2022-08-25T14:35:31.383Z,46.92
2022-08-25T14:37:58.651Z,47.45
2022-08-25T14:40:25.462Z,47.31
2022-08-25T14:42:52.180Z,47.99
2022-08-25T14:45:19.257Z,47.75
2022-08-25T14:47:49.816Z,48.12
2022-08-25T14:50:20.949Z,48.01
2022-08-25T14:52:48.239Z,49.12
2022-08-25T14:55:31.526Z,48.25
2022-08-25T14:57:59.758Z,47.70
2022-08-25T15:00:26.539Z,47.14
2022-08-25T15:02:55.012Z,46.88
2022-08-25T15:05:28.309Z,47.46
2022-08-25T15:08:14.998Z,47.94
2022-08-25T15:10:43.388Z,48.08
2022-08-25T15:13:10.854Z,47.97
2022-08-25T15:15:52.156Z,47.45
2022-08-25T15:18:20.948Z,47.48
2022-08-25T15:20:50.049Z,47.07
2022-08-25T15:23:20.913Z,47.01
2022-08-25T15:25:52.792Z,47.75
2022-08-25T15:28:21.967Z,47.98
2022-08-25T15:30:48.735Z,47.83
2022-08-25T15:33:15.282Z,47.11
2022-08-25T15:35:41.872Z,46.97
2022-08-25T15:38:10.191Z,46.89
2022-08-25T15:40:38.976Z,47.18
2022-08-25T15:43:06.889Z,47.56
2022-08-25T15:45:35.771Z,47.48
2022-08-25T15:48:02.498Z,47.39
2022-08-25T15:50:29.914Z,47.15
2022-08-25T15:52:56.714Z,47.24
2022-08-25T15:55:23.446Z,47.33
2022-08-25T15:57:50.778Z,48.43
2022-08-25T16:00:18.935Z,47.43
2022-08-25T16:02:46.308Z,47.66
2022-08-25T16:05:13.811Z,47.48
2022-08-25T16:07:45.713Z,48.40
2022-08-25T16:10:13.804Z,48.17
2022-08-25T16:12:42.753Z,48.51
2022-08-25T16:15:12.262Z,48.19
2022-08-25T16:17:40.718Z,49.32
2022-08-25T16:20:13.715Z,48.65
2022-08-25T16:22:41.237Z,49.07
2022-08-25T16:25:08.436Z,48.62
2022-08-25T16:27:38.589Z,48.54
2022-08-25T16:30:07.993Z,49.31
2022-08-25T16:32:35.198Z,49.08
2022-08-25T16:35:03.148Z,49.06
2022-08-25T16:37:30.071Z,49.05
2022-08-25T16:39:57.565Z,49.69
2022-08-25T16:42:24.368Z,48.74
2022-08-25T16:44:54.121Z,48.67
2022-08-25T16:47:25.200Z,48.76
2022-08-25T16:49:54.271Z,48.56
2022-08-25T16:52:40.717Z,48.33
2022-08-25T16:55:16.053Z,48.56
2022-08-25T16:57:47.725Z,48.95
2022-08-25T17:08:28.164Z,49.60
2022-08-25T17:11:57.180Z,49.98
2022-08-25T17:15:39.856Z,49.70
2022-08-25T17:21:40.039Z,49.88
2022-08-25T17:24:59.379Z,50.15
2022-08-25T17:31:02.239Z,50.90
2022-08-25T17:34:29.159Z,50.30
2022-08-25T17:37:19.270Z,51.05
2022-08-25T17:40:14.663Z,51.03
2022-08-25T17:56:47.495Z,51.05
2022-08-25T18:00:04.129Z,50.78
2022-08-25T18:06:03.928Z,50.92
2022-08-25T18:09:49.384Z,50.75
2022-08-25T18:16:33.150Z,50.82
2022-08-25T19:11:52.591Z,52.97
2022-08-25T19:14:21.675Z,53.84
2022-08-25T19:16:48.696Z,54.15
2022-08-25T19:19:15.495Z,53.53
2022-08-25T19:21:42.880Z,52.90
2022-08-25T19:24:12.272Z,53.90
2022-08-25T19:26:39.196Z,54.55
2022-08-25T19:29:09.279Z,54.87
2022-08-25T19:31:37.476Z,53.77
2022-08-25T19:34:07.973Z,54.27
2022-08-25T19:36:34.527Z,54.60
2022-08-25T19:39:01.388Z,55.43
2022-08-25T19:41:31.126Z,54.56
2022-08-25T19:43:58.686Z,54.92
2022-08-25T19:46:32.768Z,54.25
2022-08-25T19:49:17.368Z,55.76
2022-08-25T19:51:51.048Z,55.70
2022-08-25T19:54:26.265Z,56.06
2022-08-25T19:56:54.797Z,55.44
2022-08-25T19:59:40.364Z,55.55
2022-08-25T20:02:15.916Z,55.95
2022-08-25T20:04:49.890Z,55.72
2022-08-25T20:07:19.314Z,56.14
2022-08-25T20:09:46.292Z,55.47
2022-08-25T20:14:40.200Z,54.87
2022-08-25T20:17:13.166Z,55.02
2022-08-25T20:19:52.458Z,54.72
2022-08-25T20:22:25.009Z,55.00
2022-08-25T20:24:56.240Z,55.34
2022-08-25T20:27:28.169Z,55.73
2022-08-25T20:29:55.375Z,55.89
2022-08-25T20:32:24.021Z,55.19
2022-08-25T20:34:53.815Z,55.87
2022-08-25T20:37:22.484Z,55.72
2022-08-25T20:39:49.167Z,56.34
2022-08-25T20:42:16.308Z,56.12
2022-08-25T20:44:43.233Z,56.20
2022-08-25T20:47:10.991Z,55.44
2022-08-25T20:49:43.642Z,55.01
2022-08-25T20:52:10.689Z,50.37
2022-08-25T20:54:37.526Z,53.77
2022-08-25T20:57:04.406Z,52.26
2022-08-25T20:59:35.099Z,53.57
2022-08-25T21:02:02.141Z,50.16
2022-08-25T21:04:30.223Z,52.39
2022-08-25T21:07:00.333Z,47.68
2022-08-25T21:09:28.370Z,49.60
2022-08-25T21:11:57.342Z,51.00
2022-08-25T21:14:25.406Z,52.39
2022-08-25T21:16:54.111Z,52.95
2022-08-25T21:19:26.707Z,53.46
2022-08-25T21:22:00.030Z,54.40
2022-08-25T21:24:28.308Z,55.00
2022-08-25T21:26:57.687Z,54.93
2022-08-25T21:29:25.952Z,55.02
2022-08-25T21:31:56.075Z,55.77
2022-08-25T21:34:23.399Z,56.08
2022-08-25T21:36:50.510Z,57.08
2022-08-25T21:39:17.456Z,56.58
2022-08-25T21:41:45.403Z,57.37
2022-08-25T21:44:13.310Z,56.28
2022-08-25T21:46:41.319Z,56.73
2022-08-25T21:49:08.498Z,57.02
2022-08-25T21:51:41.464Z,56.64
2022-08-25T21:54:13.428Z,56.04
2022-08-25T21:56:42.020Z,56.89
2022-08-25T21:59:20.833Z,56.73
2022-08-25T22:01:48.197Z,57.14
2022-08-25T22:04:15.778Z,57.60
2022-08-25T22:06:42.630Z,58.33
2022-08-25T22:09:12.785Z,57.54
2022-08-25T22:11:41.867Z,57.27
2022-08-25T22:14:09.909Z,57.88
2022-08-25T22:16:38.094Z,57.47
2022-08-25T22:19:07.248Z,58.80
2022-08-25T22:21:35.547Z,59.04
2022-08-25T22:24:03.281Z,59.45
2022-08-25T22:26:31.865Z,58.65
2022-08-25T22:28:59.512Z,58.57
2022-08-25T22:31:27.795Z,58.11
2022-08-25T22:33:56.758Z,57.39
2022-08-25T22:36:36.432Z,57.70
2022-08-25T22:39:05.065Z,58.09
2022-08-25T22:41:31.960Z,59.04
2022-08-25T22:44:00.114Z,58.80
2022-08-25T22:46:32.309Z,58.48
2022-08-25T22:48:59.987Z,58.72
2022-08-25T22:51:31.368Z,59.36
2022-08-25T22:53:59.857Z,58.76
2022-08-25T22:56:34.292Z,58.95
2022-08-25T22:59:04.456Z,58.16
2022-08-25T23:01:32.001Z,58.75
2022-08-25T23:04:00.904Z,58.86
2022-08-25T23:06:28.873Z,59.42
2022-08-25T23:08:56.256Z,59.33
2022-08-25T23:11:24.344Z,59.73
2022-08-25T23:13:55.314Z,59.82
2022-08-25T23:16:22.849Z,60.17
2022-08-25T23:18:49.571Z,59.81
2022-08-25T23:21:48.569Z,59.48
2022-08-25T23:24:27.087Z,60.21
2022-08-25T23:26:58.785Z,60.43
2022-08-25T23:29:25.742Z,59.70
2022-08-25T23:31:53.719Z,60.43
2022-08-25T23:34:21.675Z,61.45
2022-08-25T23:36:48.798Z,61.84
2022-08-25T23:39:15.418Z,60.86
2022-08-25T23:41:42.234Z,61.83
2022-08-25T23:44:09.288Z,61.07
2022-08-25T23:46:39.306Z,61.82
2022-08-25T23:49:09.410Z,62.12
2022-08-25T23:51:38.193Z,61.77
2022-08-25T23:54:09.625Z,61.65
2022-08-25T23:56:42.525Z,61.14
2022-08-25T23:59:24.242Z,59.61
